sensor_id;sensor_type;location;lat;lon;timestamp;pressure;altitude;pressure_sealevel;temperature;humidity
19112;BME280;9688;51.906;8.376;2023-02-03T00:00:57;101371.75;;;9.15;100.00
19112;BME280;9688;51.906;8.376;2023-02-03T00:03:44;101369.94;;;9.17;100.00
19112;BME280;9688;51.906;8.376;2023-02-03T00:06:31;101362.94;;;9.16;100.00
19112;BME280;9688;51.906;8.376;2023-02-03T00:09:17;101358.56;;;9.15;100.00
19112;BME280;9688;51.906;8.376;2023-02-03T00:12:03;101364.66;;;9.17;100.00
19112;BME280;9688;51.906;8.376;2023-02-03T00:14:50;101372.56;;;9.17;100.00
19112;BME280;9688;51.906;8.376;2023-02-03T00:17:36;101363.72;;;9.21;100.00
19112;BME280;9688;51.906;8.376;2023-02-03T00:20:23;101356.66;;;9.22;100.00
19112;BME280;9688;51.906;8.376;2023-02-03T00:23:10;101356.72;;;9.20;100.00
19112;BME280;9688;51.906;8.376;2023-02-03T00:25:56;101371.56;;;9.23;100.00
19112;BME280;9688;51.906;8.376;2023-02-03T00:28:43;101370.66;;;9.25;100.00
19112;BME280;9688;51.906;8.376;2023-02-03T00:31:28;101364.50;;;9.26;100.00
19112;BME280;9688;51.906;8.376;2023-02-03T00:34:14;101354.81;;;9.27;100.00
19112;BME280;9688;51.906;8.376;2023-02-03T00:37:02;101355.66;;;9.27;100.00
19112;BME280;9688;51.906;8.376;2023-02-03T00:39:47;101361.84;;;9.26;100.00
19112;BME280;9688;51.906;8.376;2023-02-03T00:42:33;101367.06;;;9.28;100.00
19112;BME280;9688;51.906;8.376;2023-02-03T00:45:19;101366.19;;;9.29;100.00
19112;BME280;9688;51.906;8.376;2023-02-03T00:48:05;101364.38;;;9.31;100.00
19112;BME280;9688;51.906;8.376;2023-02-03T00:50:51;101374.03;;;9.32;100.00
19112;BME280;9688;51.906;8.376;2023-02-03T00:53:38;101369.63;;;9.32;100.00
19112;BME280;9688;51.906;8.376;2023-02-03T00:56:24;101364.34;;;9.34;100.00
19112;BME280;9688;51.906;8.376;2023-02-03T00:59:10;101370.44;;;9.36;100.00
19112;BME280;9688;51.906;8.376;2023-02-03T01:01:56;101383.59;;;9.37;100.00
19112;BME280;9688;51.906;8.376;2023-02-03T01:04:42;101374.81;;;9.37;100.00
19112;BME280;9688;51.906;8.376;2023-02-03T01:07:30;101388.81;;;9.39;100.00
19112;BME280;9688;51.906;8.376;2023-02-03T01:10:18;101395.88;;;9.38;100.00
19112;BME280;9688;51.906;8.376;2023-02-03T01:13:07;101405.59;;;9.36;100.00
19112;BME280;9688;51.906;8.376;2023-02-03T01:15:52;101403.88;;;9.35;100.00
19112;BME280;9688;51.906;8.376;2023-02-03T01:18:39;101398.56;;;9.37;100.00
19112;BME280;9688;51.906;8.376;2023-02-03T01:21:25;101393.25;;;9.38;100.00
19112;BME280;9688;51.906;8.376;2023-02-03T01:24:11;101391.44;;;9.41;100.00
19112;BME280;9688;51.906;8.376;2023-02-03T01:26:59;101396.69;;;9.42;100.00
19112;BME280;9688;51.906;8.376;2023-02-03T01:29:45;101388.75;;;9.42;100.00
19112;BME280;9688;51.906;8.376;2023-02-03T01:32:31;101395.00;;;9.40;100.00
19112;BME280;9688;51.906;8.376;2023-02-03T01:35:17;101401.06;;;9.43;100.00
19112;BME280;9688;51.906;8.376;2023-02-03T01:38:03;101398.44;;;9.42;100.00
19112;BME280;9688;51.906;8.376;2023-02-03T01:40:49;101389.66;;;9.41;100.00
19112;BME280;9688;51.906;8.376;2023-02-03T01:43:38;101402.91;;;9.40;100.00
19112;BME280;9688;51.906;8.376;2023-02-03T01:46:28;101401.16;;;9.38;100.00
19112;BME280;9688;51.906;8.376;2023-02-03T01:49:18;101387.94;;;9.40;100.00
19112;BME280;9688;51.906;8.376;2023-02-03T01:52:05;101388.81;;;9.41;100.00
19112;BME280;9688;51.906;8.376;2023-02-03T01:54:52;101387.03;;;9.41;100.00
19112;BME280;9688;51.906;8.376;2023-02-03T01:57:44;101381.75;;;9.41;100.00
19112;BME280;9688;51.906;8.376;2023-02-03T02:00:33;101390.59;;;9.40;100.00
19112;BME280;9688;51.906;8.376;2023-02-03T02:03:20;101392.31;;;9.41;100.00
19112;BME280;9688;51.906;8.376;2023-02-03T02:06:09;101381.75;;;9.41;100.00
19112;BME280;9688;51.906;8.376;2023-02-03T02:08:57;101379.97;;;9.42;100.00
19112;BME280;9688;51.906;8.376;2023-02-03T02:11:43;101374.63;;;9.45;100.00
19112;BME280;9688;51.906;8.376;2023-02-03T02:14:29;101350.03;;;9.44;100.00
19112;BME280;9688;51.906;8.376;2023-02-03T02:17:32;101350.88;;;9.45;100.00
19112;BME280;9688;51.906;8.376;2023-02-03T02:27:34;101300.66;;;9.49;100.00
19112;BME280;9688;51.906;8.376;2023-02-03T02:30:38;101318.25;;;9.49;100.00
19112;BME280;9688;51.906;8.376;2023-02-03T02:33:34;101314.78;;;9.47;100.00
19112;BME280;9688;51.906;8.376;2023-02-03T02:36:28;101303.44;;;9.43;100.00
19112;BME280;9688;51.906;8.376;2023-02-03T02:39:21;101279.69;;;9.43;100.00
19112;BME280;9688;51.906;8.376;2023-02-03T02:42:14;101276.19;;;9.43;100.00
19112;BME280;9688;51.906;8.376;2023-02-03T02:45:08;101270.00;;;9.42;100.00
19112;BME280;9688;51.906;8.376;2023-02-03T02:48:02;101281.47;;;9.43;100.00
19112;BME280;9688;51.906;8.376;2023-02-03T02:50:55;101293.75;;;9.42;100.00
19112;BME280;9688;51.906;8.376;2023-02-03T02:53:48;101296.34;;;9.45;100.00
19112;BME280;9688;51.906;8.376;2023-02-03T02:56:38;101312.13;;;9.48;100.00
19112;BME280;9688;51.906;8.376;2023-02-03T02:59:25;101341.09;;;9.50;100.00
19112;BME280;9688;51.906;8.376;2023-02-03T03:02:11;101342.84;;;9.51;100.00
19112;BME280;9688;51.906;8.376;2023-02-03T03:04:57;101364.84;;;9.50;100.00
19112;BME280;9688;51.906;8.376;2023-02-03T03:07:48;101349.94;;;9.49;100.00
19112;BME280;9688;51.906;8.376;2023-02-03T03:10:40;101346.44;;;9.48;100.00
19112;BME280;9688;51.906;8.376;2023-02-03T03:13:31;101343.75;;;9.50;100.00
19112;BME280;9688;51.906;8.376;2023-02-03T03:16:22;101343.75;;;9.50;100.00
19112;BME280;9688;51.906;8.376;2023-02-03T03:19:12;101327.09;;;9.48;100.00
19112;BME280;9688;51.906;8.376;2023-02-03T03:22:03;101319.97;;;9.50;100.00
19112;BME280;9688;51.906;8.376;2023-02-03T03:24:54;101301.50;;;9.50;100.00
19112;BME280;9688;51.906;8.376;2023-02-03T03:27:47;101316.38;;;9.54;100.00
19112;BME280;9688;51.906;8.376;2023-02-03T03:30:35;101326.94;;;9.54;100.00
19112;BME280;9688;51.906;8.376;2023-02-03T03:33:22;101319.03;;;9.52;100.00
19112;BME280;9688;51.906;8.376;2023-02-03T03:36:15;101312.03;;;9.51;100.00
19112;BME280;9688;51.906;8.376;2023-02-03T03:39:09;101299.72;;;9.50;100.00
19112;BME280;9688;51.906;8.376;2023-02-03T03:42:04;101299.72;;;9.52;100.00
19112;BME280;9688;51.906;8.376;2023-02-03T03:44:56;101306.72;;;9.53;100.00
19112;BME280;9688;51.906;8.376;2023-02-03T03:47:47;101312.06;;;9.50;100.00
19112;BME280;9688;51.906;8.376;2023-02-03T03:50:38;101304.16;;;9.50;100.00
19112;BME280;9688;51.906;8.376;2023-02-03T03:53:27;101309.47;;;9.48;100.00
19112;BME280;9688;51.906;8.376;2023-02-03T03:56:20;101304.19;;;9.48;100.00
19112;BME280;9688;51.906;8.376;2023-02-03T03:59:11;101297.16;;;9.47;100.00
19112;BME280;9688;51.906;8.376;2023-02-03T04:01:59;101296.28;;;9.48;100.00
19112;BME280;9688;51.906;8.376;2023-02-03T04:04:48;101297.09;;;9.50;100.00
19112;BME280;9688;51.906;8.376;2023-02-03T04:07:37;101275.16;;;9.48;100.00
19112;BME280;9688;51.906;8.376;2023-02-03T04:10:29;101279.59;;;9.48;100.00
19112;BME280;9688;51.906;8.376;2023-02-03T04:13:16;101278.66;;;9.49;100.00
19112;BME280;9688;51.906;8.376;2023-02-03T04:16:05;101283.97;;;9.47;100.00
19112;BME280;9688;51.906;8.376;2023-02-03T04:18:51;101289.25;;;9.47;100.00
19112;BME280;9688;51.906;8.376;2023-02-03T04:21:38;101277.84;;;9.47;100.00
19112;BME280;9688;51.906;8.376;2023-02-03T04:24:24;101289.31;;;9.46;100.00
19112;BME280;9688;51.906;8.376;2023-02-03T04:27:12;101288.44;;;9.45;100.00
19112;BME280;9688;51.906;8.376;2023-02-03T04:29:58;101281.38;;;9.46;100.00
19112;BME280;9688;51.906;8.376;2023-02-03T04:32:45;101290.19;;;9.45;100.00
19112;BME280;9688;51.906;8.376;2023-02-03T04:35:31;101283.09;;;9.47;100.00
19112;BME280;9688;51.906;8.376;2023-02-03T04:38:17;101280.47;;;9.47;100.00
19112;BME280;9688;51.906;8.376;2023-02-03T04:41:03;101281.31;;;9.49;100.00
19112;BME280;9688;51.906;8.376;2023-02-03T04:43:49;101291.78;;;9.52;100.00
19112;BME280;9688;51.906;8.376;2023-02-03T04:46:35;101283.84;;;9.53;100.00
19112;BME280;9688;51.906;8.376;2023-02-03T04:49:22;101286.44;;;9.55;99.71
19112;BME280;9688;51.906;8.376;2023-02-03T04:52:08;101290.84;;;9.54;100.00
19112;BME280;9688;51.906;8.376;2023-02-03T04:54:55;101284.72;;;9.54;99.53
19112;BME280;9688;51.906;8.376;2023-02-03T04:57:41;101276.75;;;9.55;99.58
19112;BME280;9688;51.906;8.376;2023-02-03T05:00:27;101255.63;;;9.55;99.44
19112;BME280;9688;51.906;8.376;2023-02-03T05:03:14;101238.06;;;9.54;99.55
19112;BME280;9688;51.906;8.376;2023-02-03T05:06:01;101236.34;;;9.53;99.94
19112;BME280;9688;51.906;8.376;2023-02-03T05:08:48;101229.31;;;9.52;98.98
19112;BME280;9688;51.906;8.376;2023-02-03T05:11:34;101227.59;;;9.51;99.16
19112;BME280;9688;51.906;8.376;2023-02-03T05:14:20;101221.44;;;9.51;99.20
19112;BME280;9688;51.906;8.376;2023-02-03T05:17:06;101232.88;;;9.51;99.61
19112;BME280;9688;51.906;8.376;2023-02-03T05:19:52;101239.94;;;9.51;99.59
19112;BME280;9688;51.906;8.376;2023-02-03T05:22:42;101227.59;;;9.51;99.43
19112;BME280;9688;51.906;8.376;2023-02-03T05:25:28;101226.69;;;9.52;99.38
19112;BME280;9688;51.906;8.376;2023-02-03T05:28:14;101229.28;;;9.54;98.82
19112;BME280;9688;51.906;8.376;2023-02-03T05:31:01;101231.06;;;9.53;99.24
19112;BME280;9688;51.906;8.376;2023-02-03T05:33:47;101238.91;;;9.56;98.51
19112;BME280;9688;51.906;8.376;2023-02-03T05:36:33;101216.03;;;9.55;98.96
19112;BME280;9688;51.906;8.376;2023-02-03T05:39:20;101222.22;;;9.54;98.40
19112;BME280;9688;51.906;8.376;2023-02-03T05:42:07;101216.88;;;9.57;99.21
19112;BME280;9688;51.906;8.376;2023-02-03T05:44:52;101218.56;;;9.60;98.79
19112;BME280;9688;51.906;8.376;2023-02-03T05:47:37;101205.38;;;9.60;98.35
19112;BME280;9688;51.906;8.376;2023-02-03T05:50:24;101223.00;;;9.59;98.76
19112;BME280;9688;51.906;8.376;2023-02-03T05:53:11;101220.34;;;9.59;98.33
19112;BME280;9688;51.906;8.376;2023-02-03T05:55:58;101215.06;;;9.59;98.01
19112;BME280;9688;51.906;8.376;2023-02-03T05:58:44;101223.00;;;9.59;98.57
19112;BME280;9688;51.906;8.376;2023-02-03T06:01:30;101233.50;;;9.61;98.57
19112;BME280;9688;51.906;8.376;2023-02-03T06:04:16;101232.56;;;9.64;98.80
19112;BME280;9688;51.906;8.376;2023-02-03T06:07:04;101221.09;;;9.65;98.53
19112;BME280;9688;51.906;8.376;2023-02-03T06:09:49;101236.03;;;9.66;97.65
19112;BME280;9688;51.906;8.376;2023-02-03T06:12:38;101235.13;;;9.67;97.42
19112;BME280;9688;51.906;8.376;2023-02-03T06:15:24;101225.47;;;9.66;98.70
19112;BME280;9688;51.906;8.376;2023-02-03T06:18:10;101218.53;;;9.61;97.92
19112;BME280;9688;51.906;8.376;2023-02-03T06:20:58;101236.28;;;9.56;97.94
19112;BME280;9688;51.906;8.376;2023-02-03T06:23:44;101233.72;;;9.52;99.29
19112;BME280;9688;51.906;8.376;2023-02-03T06:26:30;101234.81;;;9.43;99.70
19112;BME280;9688;51.906;8.376;2023-02-03T06:29:18;101235.91;;;9.34;99.50
19112;BME280;9688;51.906;8.376;2023-02-03T06:32:04;101243.09;;;9.28;100.00
19112;BME280;9688;51.906;8.376;2023-02-03T06:34:51;101242.31;;;9.23;100.00
19112;BME280;9688;51.906;8.376;2023-02-03T06:37:38;101237.16;;;9.18;100.00
19112;BME280;9688;51.906;8.376;2023-02-03T06:40:30;101232.78;;;9.17;100.00
19112;BME280;9688;51.906;8.376;2023-02-03T06:43:28;101233.63;;;9.19;100.00
19112;BME280;9688;51.906;8.376;2023-02-03T06:46:21;101230.09;;;9.20;100.00
19112;BME280;9688;51.906;8.376;2023-02-03T06:49:11;101222.22;;;9.17;100.00
19112;BME280;9688;51.906;8.376;2023-02-03T06:51:57;101233.66;;;9.18;100.00
19112;BME280;9688;51.906;8.376;2023-02-03T06:54:46;101231.97;;;9.15;100.00
19112;BME280;9688;51.906;8.376;2023-02-03T06:57:34;101225.81;;;9.14;100.00
19112;BME280;9688;51.906;8.376;2023-02-03T07:00:23;101237.25;;;9.13;100.00
19112;BME280;9688;51.906;8.376;2023-02-03T07:03:11;101244.31;;;9.13;100.00
19112;BME280;9688;51.906;8.376;2023-02-03T07:05:56;101249.50;;;9.16;100.00
19112;BME280;9688;51.906;8.376;2023-02-03T07:08:42;101251.19;;;9.20;100.00
19112;BME280;9688;51.906;8.376;2023-02-03T07:11:30;101245.00;;;9.21;100.00
19112;BME280;9688;51.906;8.376;2023-02-03T07:14:16;101230.13;;;9.19;100.00
19112;BME280;9688;51.906;8.376;2023-02-03T07:17:02;101239.81;;;9.16;100.00
19112;BME280;9688;51.906;8.376;2023-02-03T07:19:49;101235.47;;;9.15;100.00
19112;BME280;9688;51.906;8.376;2023-02-03T07:22:36;101230.28;;;9.11;100.00
19112;BME280;9688;51.906;8.376;2023-02-03T07:25:24;101228.56;;;9.10;100.00
19112;BME280;9688;51.906;8.376;2023-02-03T07:28:11;101219.84;;;9.06;100.00
19112;BME280;9688;51.906;8.376;2023-02-03T07:30:57;101221.66;;;9.04;100.00
19112;BME280;9688;51.906;8.376;2023-02-03T07:33:44;101224.22;;;9.06;100.00
19112;BME280;9688;51.906;8.376;2023-02-03T07:36:32;101224.22;;;9.06;100.00
19112;BME280;9688;51.906;8.376;2023-02-03T07:39:18;101229.56;;;9.04;100.00
19112;BME280;9688;51.906;8.376;2023-02-03T07:42:05;101204.97;;;9.04;100.00
19112;BME280;9688;51.906;8.376;2023-02-03T07:44:51;101226.09;;;9.02;100.00
19112;BME280;9688;51.906;8.376;2023-02-03T07:47:37;101226.06;;;9.04;100.00
19112;BME280;9688;51.906;8.376;2023-02-03T07:50:25;101222.50;;;9.05;100.00
19112;BME280;9688;51.906;8.376;2023-02-03T07:53:13;101209.31;;;9.06;100.00
19112;BME280;9688;51.906;8.376;2023-02-03T07:55:59;101206.63;;;9.08;100.00
19112;BME280;9688;51.906;8.376;2023-02-03T07:58:46;101183.72;;;9.10;100.00
19112;BME280;9688;51.906;8.376;2023-02-03T08:01:32;101199.50;;;9.11;100.00
19112;BME280;9688;51.906;8.376;2023-02-03T08:04:19;101201.25;;;9.11;100.00
19112;BME280;9688;51.906;8.376;2023-02-03T08:07:06;101192.50;;;9.10;100.00
19112;BME280;9688;51.906;8.376;2023-02-03T08:09:54;101193.41;;;9.09;100.00
19112;BME280;9688;51.906;8.376;2023-02-03T08:12:40;101203.97;;;9.08;100.00
19112;BME280;9688;51.906;8.376;2023-02-03T08:15:35;101217.22;;;9.06;100.00
19112;BME280;9688;51.906;8.376;2023-02-03T08:18:24;101211.09;;;9.04;100.00
19112;BME280;9688;51.906;8.376;2023-02-03T08:21:10;101212.88;;;9.04;100.00
19112;BME280;9688;51.906;8.376;2023-02-03T08:23:56;101217.22;;;9.06;100.00
19112;BME280;9688;51.906;8.376;2023-02-03T08:26:44;101217.16;;;9.09;100.00
19112;BME280;9688;51.906;8.376;2023-02-03T08:29:30;101220.56;;;9.13;100.00
19112;BME280;9688;51.906;8.376;2023-02-03T08:32:18;101217.00;;;9.15;100.00
19112;BME280;9688;51.906;8.376;2023-02-03T08:35:06;101221.41;;;9.15;100.00
19112;BME280;9688;51.906;8.376;2023-02-03T08:37:53;101217.00;;;9.15;100.00
19112;BME280;9688;51.906;8.376;2023-02-03T08:40:39;101214.28;;;9.19;100.00
19112;BME280;9688;51.906;8.376;2023-02-03T08:43:27;101221.28;;;9.20;100.00
19112;BME280;9688;51.906;8.376;2023-02-03T08:46:17;101201.84;;;9.24;100.00
19112;BME280;9688;51.906;8.376;2023-02-03T08:49:04;101203.59;;;9.25;100.00
19112;BME280;9688;51.906;8.376;2023-02-03T08:51:50;101220.28;;;9.25;100.00
19112;BME280;9688;51.906;8.376;2023-02-03T08:54:39;101214.03;;;9.29;100.00
19112;BME280;9688;51.906;8.376;2023-02-03T08:57:25;101220.94;;;9.35;100.00
19112;BME280;9688;51.906;8.376;2023-02-03T09:00:17;101211.22;;;9.37;100.00
19112;BME280;9688;51.906;8.376;2023-02-03T09:03:04;101205.78;;;9.43;100.00
19112;BME280;9688;51.906;8.376;2023-02-03T09:05:51;101197.69;;;9.51;100.00
19112;BME280;9688;51.906;8.376;2023-02-03T09:08:36;101195.78;;;9.56;100.00
19112;BME280;9688;51.906;8.376;2023-02-03T09:11:23;101189.47;;;9.61;100.00
19112;BME280;9688;51.906;8.376;2023-02-03T09:14:10;101181.47;;;9.66;100.00
19112;BME280;9688;51.906;8.376;2023-02-03T09:16:58;101184.88;;;9.70;100.00
19112;BME280;9688;51.906;8.376;2023-02-03T09:19:44;101183.00;;;9.75;100.00
19112;BME280;9688;51.906;8.376;2023-02-03T09:22:31;101182.97;;;9.76;100.00
19112;BME280;9688;51.906;8.376;2023-02-03T09:25:19;101204.03;;;9.78;100.00
19112;BME280;9688;51.906;8.376;2023-02-03T09:28:12;101204.91;;;9.78;100.00
19112;BME280;9688;51.906;8.376;2023-02-03T09:31:07;101215.47;;;9.78;100.00
19112;BME280;9688;51.906;8.376;2023-02-03T09:34:00;101211.16;;;9.76;100.00
19112;BME280;9688;51.906;8.376;2023-02-03T09:36:50;101215.53;;;9.75;100.00
19112;BME280;9688;51.906;8.376;2023-02-03T09:39:36;101209.38;;;9.76;100.00
19112;BME280;9688;51.906;8.376;2023-02-03T09:42:39;101223.44;;;9.77;100.00
19112;BME280;9688;51.906;8.376;2023-02-03T09:45:34;101207.56;;;9.78;100.00
19112;BME280;9688;51.906;8.376;2023-02-03T09:48:27;101219.84;;;9.79;100.00
19112;BME280;9688;51.906;8.376;2023-02-03T09:51:23;101216.28;;;9.80;100.00
19112;BME280;9688;51.906;8.376;2023-02-03T09:54:20;101209.19;;;9.82;100.00
19112;BME280;9688;51.906;8.376;2023-02-03T09:57:19;101205.59;;;9.87;100.00
19112;BME280;9688;51.906;8.376;2023-02-03T10:00:16;101201.97;;;9.89;100.00
19112;BME280;9688;51.906;8.376;2023-02-03T10:03:10;101207.19;;;9.92;100.00
19112;BME280;9688;51.906;8.376;2023-02-03T10:06:21;101190.44;;;9.93;100.00
19112;BME280;9688;51.906;8.376;2023-02-03T10:09:21;101202.69;;;9.96;100.00
19112;BME280;9688;51.906;8.376;2023-02-03T10:12:29;101202.69;;;9.96;100.00
19112;BME280;9688;51.906;8.376;2023-02-03T10:15:47;101198.25;;;9.98;100.00
19112;BME280;9688;51.906;8.376;2023-02-03T10:18:46;101204.31;;;10.01;100.00
19112;BME280;9688;51.906;8.376;2023-02-03T10:21:43;101213.94;;;10.04;100.00
19112;BME280;9688;51.906;8.376;2023-02-03T10:24:42;101232.41;;;10.04;100.00
19112;BME280;9688;51.906;8.376;2023-02-03T10:27:34;101225.38;;;10.03;100.00
19112;BME280;9688;51.906;8.376;2023-02-03T10:30:27;101229.88;;;9.99;100.00
19112;BME280;9688;51.906;8.376;2023-02-03T10:33:41;101246.75;;;9.94;100.00
19112;BME280;9688;51.906;8.376;2023-02-03T10:36:35;101257.38;;;9.92;100.00
19112;BME280;9688;51.906;8.376;2023-02-03T10:39:38;101261.81;;;9.90;100.00
19112;BME280;9688;51.906;8.376;2023-02-03T10:42:33;101264.63;;;9.84;100.00
19112;BME280;9688;51.906;8.376;2023-02-03T10:45:38;101266.47;;;9.80;100.00
19112;BME280;9688;51.906;8.376;2023-02-03T10:48:27;101270.03;;;9.78;100.00
19112;BME280;9688;51.906;8.376;2023-02-03T10:51:18;101269.25;;;9.74;100.00
19112;BME280;9688;51.906;8.376;2023-02-03T10:54:25;101264.06;;;9.70;100.00
19112;BME280;9688;51.906;8.376;2023-02-03T10:57:16;101253.50;;;9.71;100.00
19112;BME280;9688;51.906;8.376;2023-02-03T11:00:23;101248.22;;;9.71;100.00
19112;BME280;9688;51.906;8.376;2023-02-03T11:03:22;101256.09;;;9.73;100.00
19112;BME280;9688;51.906;8.376;2023-02-03T11:06:13;101257.75;;;9.77;100.00
19112;BME280;9688;51.906;8.376;2023-02-03T11:08:59;101265.59;;;9.80;100.00
19112;BME280;9688;51.906;8.376;2023-02-03T11:11:47;101267.28;;;9.84;100.00
19112;BME280;9688;51.906;8.376;2023-02-03T11:14:38;101261.00;;;9.88;100.00
19112;BME280;9688;51.906;8.376;2023-02-03T11:17:29;101254.75;;;9.92;100.00
19112;BME280;9688;51.906;8.376;2023-02-03T11:20:18;101257.31;;;9.95;100.00
19112;BME280;9688;51.906;8.376;2023-02-03T11:23:11;101251.19;;;9.93;100.00
19112;BME280;9688;51.906;8.376;2023-02-03T11:25:57;101252.91;;;9.94;100.00
19112;BME280;9688;51.906;8.376;2023-02-03T11:28:46;101255.53;;;9.96;100.00
19112;BME280;9688;51.906;8.376;2023-02-03T11:31:35;101250.19;;;9.97;100.00
19112;BME280;9688;51.906;8.376;2023-02-03T11:34:26;101258.16;;;9.96;100.00
19112;BME280;9688;51.906;8.376;2023-02-03T11:37:28;101247.53;;;9.97;100.00
19112;BME280;9688;51.906;8.376;2023-02-03T11:40:27;101247.53;;;9.97;100.00
19112;BME280;9688;51.906;8.376;2023-02-03T11:43:15;101255.41;;;10.00;100.00
19112;BME280;9688;51.906;8.376;2023-02-03T11:46:03;101264.19;;;10.01;100.00
19112;BME280;9688;51.906;8.376;2023-02-03T11:49:06;101265.16;;;9.98;100.00
19112;BME280;9688;51.906;8.376;2023-02-03T11:52:03;101254.53;;;10.00;100.00
19112;BME280;9688;51.906;8.376;2023-02-03T11:55:02;101267.78;;;9.98;100.00
19112;BME280;9688;51.906;8.376;2023-02-03T12:01:16;101273.16;;;9.95;100.00
19112;BME280;9688;51.906;8.376;2023-02-03T12:04:35;101273.22;;;9.92;100.00
19112;BME280;9688;51.906;8.376;2023-02-03T12:07:40;101289.13;;;9.89;100.00
19112;BME280;9688;51.906;8.376;2023-02-03T12:10:43;101286.53;;;9.88;100.00
19112;BME280;9688;51.906;8.376;2023-02-03T12:13:51;101293.50;;;9.90;100.00
19112;BME280;9688;51.906;8.376;2023-02-03T12:17:04;101318.94;;;9.94;100.00
19112;BME280;9688;51.906;8.376;2023-02-03T12:20:11;101304.75;;;9.98;100.00
19112;BME280;9688;51.906;8.376;2023-02-03T12:23:20;101319.59;;;10.02;100.00
19112;BME280;9688;51.906;8.376;2023-02-03T12:26:52;101316.88;;;10.07;100.00
19112;BME280;9688;51.906;8.376;2023-02-03T12:29:55;101325.72;;;10.06;100.00
19112;BME280;9688;51.906;8.376;2023-02-03T12:32:59;101325.63;;;10.09;100.00
19112;BME280;9688;51.906;8.376;2023-02-03T12:36:00;101335.25;;;10.12;100.00
19112;BME280;9688;51.906;8.376;2023-02-03T12:38:56;101329.03;;;10.14;100.00
19112;BME280;9688;51.906;8.376;2023-02-03T12:41:49;101329.75;;;10.19;100.00
19112;BME280;9688;51.906;8.376;2023-02-03T12:44:42;101339.44;;;10.20;100.00
19112;BME280;9688;51.906;8.376;2023-02-03T12:47:35;101332.31;;;10.22;100.00
19112;BME280;9688;51.906;8.376;2023-02-03T12:50:29;101337.56;;;10.24;100.00
19112;BME280;9688;51.906;8.376;2023-02-03T12:53:21;101316.41;;;10.25;100.00
19112;BME280;9688;51.906;8.376;2023-02-03T12:56:24;101307.53;;;10.28;100.00
19112;BME280;9688;51.906;8.376;2023-02-03T12:59:15;101329.41;;;10.35;100.00
19112;BME280;9688;51.906;8.376;2023-02-03T13:02:15;101323.09;;;10.40;100.00
19112;BME280;9688;51.906;8.376;2023-02-03T13:05:17;101321.19;;;10.45;100.00
19112;BME280;9688;51.906;8.376;2023-02-03T13:08:12;101326.47;;;10.45;100.00
19112;BME280;9688;51.906;8.376;2023-02-03T13:11:10;101328.22;;;10.46;100.00
19112;BME280;9688;51.906;8.376;2023-02-03T13:14:03;101328.22;;;10.46;100.00
19112;BME280;9688;51.906;8.376;2023-02-03T13:16:59;101325.47;;;10.49;100.00
19112;BME280;9688;51.906;8.376;2023-02-03T13:19:48;101331.50;;;10.55;100.00
19112;BME280;9688;51.906;8.376;2023-02-03T13:22:35;101315.53;;;10.59;100.00
19112;BME280;9688;51.906;8.376;2023-02-03T13:25:24;101295.28;;;10.58;100.00
19112;BME280;9688;51.906;8.376;2023-02-03T13:28:17;101293.56;;;10.57;99.79
19112;BME280;9688;51.906;8.376;2023-02-03T13:31:20;101302.31;;;10.59;98.69
19112;BME280;9688;51.906;8.376;2023-02-03T13:34:33;101307.59;;;10.59;98.53
19112;BME280;9688;51.906;8.376;2023-02-03T13:37:37;101316.31;;;10.63;99.06
19112;BME280;9688;51.906;8.376;2023-02-03T13:40:39;101320.66;;;10.65;98.79
19112;BME280;9688;51.906;8.376;2023-02-03T13:43:32;101324.22;;;10.64;98.34
19112;BME280;9688;51.906;8.376;2023-02-03T13:46:23;101325.03;;;10.66;98.39
19112;BME280;9688;51.906;8.376;2023-02-03T13:49:23;101324.25;;;10.63;97.34
19112;BME280;9688;51.906;8.376;2023-02-03T13:52:23;101339.34;;;10.58;97.14
19112;BME280;9688;51.906;8.376;2023-02-03T13:55:29;101348.31;;;10.52;96.35
19112;BME280;9688;51.906;8.376;2023-02-03T13:58:21;101340.47;;;10.49;97.17
19112;BME280;9688;51.906;8.376;2023-02-03T14:01:33;101340.59;;;10.44;96.79
19112;BME280;9688;51.906;8.376;2023-02-03T14:04:53;101345.97;;;10.41;95.95
19112;BME280;9688;51.906;8.376;2023-02-03T14:07:44;101363.59;;;10.41;95.67
19112;BME280;9688;51.906;8.376;2023-02-03T14:10:37;101362.69;;;10.42;95.58
19112;BME280;9688;51.906;8.376;2023-02-03T14:13:28;101379.44;;;10.42;95.24
19112;BME280;9688;51.906;8.376;2023-02-03T14:16:22;101382.09;;;10.41;94.96
19112;BME280;9688;51.906;8.376;2023-02-03T14:22:39;101382.22;;;10.36;93.97
19112;BME280;9688;51.906;8.376;2023-02-03T14:25:30;101377.81;;;10.37;94.32
19112;BME280;9688;51.906;8.376;2023-02-03T14:28:37;101380.47;;;10.35;93.83
19112;BME280;9688;51.906;8.376;2023-02-03T14:31:28;101375.34;;;10.29;93.40
19112;BME280;9688;51.906;8.376;2023-02-03T14:34:17;101390.34;;;10.29;93.53
19112;BME280;9688;51.906;8.376;2023-02-03T14:37:22;101401.84;;;10.24;93.45
19112;BME280;9688;51.906;8.376;2023-02-03T14:40:26;101411.53;;;10.25;92.63
19112;BME280;9688;51.906;8.376;2023-02-03T14:43:32;101405.41;;;10.23;92.45
19112;BME280;9688;51.906;8.376;2023-02-03T14:46:39;101416.94;;;10.19;92.25
19112;BME280;9688;51.906;8.376;2023-02-03T14:49:55;101424.09;;;10.16;92.16
19112;BME280;9688;51.906;8.376;2023-02-03T14:53:03;101429.38;;;10.16;91.29
19112;BME280;9688;51.906;8.376;2023-02-03T14:56:09;101419.75;;;10.13;91.44
19112;BME280;9688;51.906;8.376;2023-02-03T14:59:03;101429.41;;;10.14;91.47
19112;BME280;9688;51.906;8.376;2023-02-03T15:02:24;101447.16;;;10.09;90.86
19112;BME280;9688;51.906;8.376;2023-02-03T15:05:38;101450.75;;;10.05;90.83
19112;BME280;9688;51.906;8.376;2023-02-03T15:08:36;101471.03;;;10.04;89.91
19112;BME280;9688;51.906;8.376;2023-02-03T15:11:26;101474.53;;;10.05;90.27
19112;BME280;9688;51.906;8.376;2023-02-03T15:14:22;101475.44;;;10.04;89.22
19112;BME280;9688;51.906;8.376;2023-02-03T15:17:12;101493.00;;;10.05;89.60
19112;BME280;9688;51.906;8.376;2023-02-03T15:20:24;101501.81;;;10.05;89.61
19112;BME280;9688;51.906;8.376;2023-02-03T15:23:21;101498.28;;;10.07;88.33